createdAt,value
2022-08-04T00:00:13.772Z,26.22
2022-08-04T00:03:24.708Z,26.21
2022-08-04T00:06:28.692Z,26.22
2022-08-04T00:09:29.793Z,26.23
2022-08-04T00:12:17.444Z,26.27
2022-08-04T00:15:06.264Z,26.23
2022-08-04T00:17:56.206Z,26.23
2022-08-04T00:20:42.666Z,26.27
2022-08-04T00:24:11.490Z,26.25
2022-08-04T00:26:36.198Z,26.22
2022-08-04T00:29:23.295Z,26.24
2022-08-04T00:32:09.289Z,26.21
2022-08-04T00:34:55.820Z,26.21
2022-08-04T00:37:47.336Z,26.20
2022-08-04T00:40:44.417Z,26.17
2022-08-04T00:43:35.445Z,26.11
2022-08-04T00:46:57.852Z,26.07
2022-08-04T00:50:10.157Z,26.09
2022-08-04T00:53:33.547Z,26.03
2022-08-04T00:56:53.318Z,26.00
2022-08-04T01:00:04.975Z,25.96
2022-08-04T01:02:57.892Z,25.98
2022-08-04T01:05:58.282Z,25.96
2022-08-04T01:09:08.630Z,25.92
2022-08-04T01:12:08.648Z,25.87
2022-08-04T01:15:06.934Z,25.89
2022-08-04T01:18:06.633Z,25.83
2022-08-04T01:21:17.742Z,25.86
2022-08-04T01:24:18.642Z,25.81
2022-08-04T01:27:20.732Z,25.76
2022-08-04T01:30:08.677Z,25.77
2022-08-04T01:33:09.927Z,25.69
2022-08-04T01:36:02.286Z,25.72
2022-08-04T01:38:51.655Z,25.68
2022-08-04T01:41:37.841Z,25.64
2022-08-04T01:44:24.963Z,25.69
2022-08-04T01:47:11.548Z,25.58
2022-08-04T01:50:06.448Z,25.65
2022-08-04T01:52:55.405Z,25.64
2022-08-04T01:55:54.896Z,25.60
2022-08-04T01:58:41.922Z,25.59
2022-08-04T02:01:28.088Z,25.57
2022-08-04T02:04:23.313Z,25.56
2022-08-04T02:07:28.557Z,25.53
2022-08-04T02:10:17.416Z,25.53
2022-08-04T02:13:24.851Z,25.53
2022-08-04T02:16:16.686Z,25.52
2022-08-04T02:19:36.189Z,25.49
2022-08-04T02:22:23.222Z,25.49
2022-08-04T02:25:10.692Z,25.50
2022-08-04T02:28:05.527Z,25.49
2022-08-04T02:31:29.163Z,25.45
2022-08-04T02:34:29.968Z,25.44
2022-08-04T02:37:21.133Z,25.42
2022-08-04T02:40:08.380Z,25.45
2022-08-04T02:43:01.549Z,25.35
2022-08-04T02:45:49.681Z,25.39
2022-08-04T02:48:37.173Z,25.37
2022-08-04T02:51:26.269Z,25.36
2022-08-04T02:54:12.505Z,25.35
2022-08-04T02:57:00.638Z,25.33
2022-08-04T02:59:55.096Z,25.30
2022-08-04T03:02:52.783Z,25.25
2022-08-04T03:05:57.573Z,25.24
2022-08-04T03:09:01.936Z,25.20
2022-08-04T03:12:18.135Z,25.17
2022-08-04T03:15:12.949Z,25.16
2022-08-04T03:18:25.030Z,25.12
2022-08-04T03:21:26.801Z,25.09
2022-08-04T03:24:39.551Z,25.08
2022-08-04T03:27:45.858Z,25.09
2022-08-04T03:30:59.906Z,25.06
2022-08-04T03:34:10.539Z,24.99
2022-08-04T03:37:17.440Z,24.98
2022-08-04T03:40:35.773Z,24.99
2022-08-04T03:43:58.917Z,24.98
2022-08-04T03:47:08.815Z,24.96
2022-08-04T03:50:34.184Z,24.96
2022-08-04T03:53:33.622Z,24.97
2022-08-04T03:56:25.401Z,24.96
2022-08-04T03:59:38.412Z,24.95
2022-08-04T04:02:48.862Z,24.94
2022-08-04T04:06:12.267Z,24.92
2022-08-04T04:09:56.667Z,24.92
2022-08-04T04:12:48.288Z,24.93
2022-08-04T04:15:59.136Z,24.93
2022-08-04T04:19:23.584Z,24.89
2022-08-04T04:22:35.412Z,24.85
2022-08-04T04:25:34.452Z,24.83
2022-08-04T04:28:45.593Z,24.86
2022-08-04T04:32:07.417Z,24.81
2022-08-04T04:35:08.768Z,24.85
2022-08-04T04:38:22.465Z,24.84
2022-08-04T04:41:27.664Z,24.81
2022-08-04T04:44:39.453Z,24.79
2022-08-04T04:48:07.610Z,24.82
2022-08-04T04:51:09.139Z,24.81
2022-08-04T04:54:14.976Z,24.82
2022-08-04T04:57:10.788Z,24.86
2022-08-04T05:00:09.279Z,24.88
2022-08-04T05:03:13.472Z,24.91
2022-08-04T05:06:08.469Z,24.93
2022-08-04T05:09:05.134Z,24.92
2022-08-04T05:11:50.895Z,25.00
2022-08-04T05:14:43.555Z,24.98
2022-08-04T05:17:53.075Z,25.01
2022-08-04T05:20:42.311Z,25.08
2022-08-04T05:23:29.745Z,25.07
2022-08-04T05:26:18.514Z,25.14
2022-08-04T05:29:08.047Z,25.13
2022-08-04T05:31:54.561Z,25.15
2022-08-04T05:34:57.256Z,25.13
2022-08-04T05:37:44.412Z,25.17
2022-08-04T05:40:30.474Z,25.16
2022-08-04T05:43:24.366Z,25.14
2022-08-04T05:46:11.514Z,25.18
2022-08-04T05:48:57.670Z,25.17
2022-08-04T05:51:46.224Z,25.18
2022-08-04T05:54:33.869Z,25.21
2022-08-04T05:57:20.243Z,25.19
2022-08-04T06:00:31.648Z,25.23
2022-08-04T06:03:19.925Z,25.24
2022-08-04T06:06:07.158Z,25.20
2022-08-04T06:08:52.883Z,25.23
2022-08-04T06:12:00.927Z,25.27
2022-08-04T06:14:47.563Z,25.30
2022-08-04T06:18:58.543Z,25.31
2022-08-04T06:20:50.168Z,25.35
2022-08-04T06:23:37.788Z,25.38
2022-08-04T06:26:44.385Z,25.42
2022-08-04T06:29:41.193Z,25.46
2022-08-04T06:32:47.510Z,25.47
2022-08-04T06:35:34.536Z,25.49
2022-08-04T06:38:25.111Z,25.51
2022-08-04T06:41:12.414Z,25.52
2022-08-04T06:44:08.068Z,25.57
2022-08-04T06:46:54.970Z,25.62
2022-08-04T06:49:44.200Z,25.65
2022-08-04T06:52:48.642Z,25.64
2022-08-04T06:55:34.947Z,25.70
2022-08-04T06:58:22.239Z,25.77
2022-08-04T07:01:08.416Z,25.78
2022-08-04T07:03:54.600Z,25.78
2022-08-04T07:06:41.868Z,25.86
2022-08-04T07:09:27.959Z,25.89
2022-08-04T07:12:14.441Z,25.94
2022-08-04T07:15:00.321Z,25.97
2022-08-04T07:17:52.092Z,25.98
2022-08-04T07:20:43.294Z,26.01
2022-08-04T07:23:29.451Z,26.05
2022-08-04T07:26:17.412Z,26.13
2022-08-04T07:29:04.452Z,26.15
2022-08-04T07:31:50.645Z,26.20
2022-08-04T07:34:37.753Z,26.22
2022-08-04T07:37:24.800Z,26.21
2022-08-04T07:40:25.095Z,26.23
2022-08-04T07:43:10.936Z,26.23
2022-08-04T07:45:57.070Z,26.31
2022-08-04T07:48:43.357Z,26.36
2022-08-04T07:51:31.122Z,26.35
2022-08-04T07:54:17.883Z,26.41
2022-08-04T07:57:04.223Z,26.40
2022-08-04T07:59:50.533Z,26.45
2022-08-04T08:02:37.115Z,26.46
2022-08-04T08:05:23.188Z,26.48
2022-08-04T08:08:08.949Z,26.51
2022-08-04T08:10:54.870Z,26.56
2022-08-04T08:13:40.963Z,26.59
2022-08-04T08:16:27.880Z,26.61
2022-08-04T08:19:14.506Z,26.64
2022-08-04T08:22:01.596Z,26.68
2022-08-04T08:24:48.444Z,26.72
2022-08-04T08:27:34.728Z,26.76
2022-08-04T08:30:20.526Z,26.78
2022-08-04T08:33:08.899Z,26.83
2022-08-04T08:36:05.060Z,26.84
2022-08-04T08:39:14.719Z,26.88
2022-08-04T08:42:19.059Z,26.91
2022-08-04T08:45:40.132Z,26.96
2022-08-04T08:48:46.331Z,26.98
2022-08-04T08:51:53.648Z,27.02
2022-08-04T08:54:55.008Z,27.07
2022-08-04T08:58:19.591Z,27.07
2022-08-04T09:01:37.012Z,27.13
2022-08-04T09:04:48.390Z,27.18
2022-08-04T09:07:55.955Z,27.22
2022-08-04T09:10:59.351Z,27.27
2022-08-04T09:13:50.586Z,27.31
2022-08-04T09:16:57.734Z,27.34
2022-08-04T09:19:48.022Z,27.40
2022-08-04T09:22:41.169Z,27.45
2022-08-04T09:25:31.547Z,27.49
2022-08-04T09:28:50.834Z,27.49
2022-08-04T09:31:48.802Z,27.54
2022-08-04T09:35:15.966Z,27.56
2022-08-04T09:38:15.057Z,27.58
2022-08-04T09:41:49.591Z,27.59
2022-08-04T09:44:56.222Z,27.60
2022-08-04T09:47:59.239Z,27.61
2022-08-04T09:50:49.999Z,27.63
2022-08-04T09:54:03.034Z,27.63
2022-08-04T09:57:01.095Z,27.65
2022-08-04T10:00:06.842Z,27.62
2022-08-04T10:03:01.169Z,27.67
2022-08-04T10:06:27.517Z,27.70
2022-08-04T10:09:38.748Z,27.76
2022-08-04T10:12:24.757Z,27.82
2022-08-04T10:15:17.232Z,27.88
2022-08-04T10:18:44.983Z,27.96
2022-08-04T10:21:59.214Z,28.04
2022-08-04T10:25:05.032Z,28.10
2022-08-04T10:28:17.683Z,28.11
2022-08-04T10:31:08.124Z,28.03
2022-08-04T10:34:17.614Z,27.82
2022-08-04T10:37:20.663Z,27.65
2022-08-04T10:40:45.781Z,27.47
2022-08-04T10:43:57.605Z,27.38
2022-08-04T10:46:51.758Z,27.35
2022-08-04T10:49:44.891Z,27.45
2022-08-04T10:52:36.454Z,27.58
2022-08-04T10:56:07.288Z,27.67
2022-08-04T10:58:47.338Z,27.87
2022-08-04T11:02:01.231Z,27.99
2022-08-04T11:05:00.147Z,28.11
2022-08-04T11:07:49.478Z,28.25
2022-08-04T11:10:40.518Z,28.32
2022-08-04T11:13:33.363Z,28.39
2022-08-04T11:16:37.311Z,28.44
2022-08-04T11:19:45.102Z,28.54
2022-08-04T11:22:39.411Z,28.61
2022-08-04T11:25:28.077Z,28.69
2022-08-04T11:29:03.210Z,28.75
2022-08-04T11:31:52.156Z,28.79
2022-08-04T11:34:40.783Z,28.84
2022-08-04T11:37:32.681Z,28.89
2022-08-04T11:40:55.865Z,28.92
2022-08-04T11:44:04.013Z,29.02
2022-08-04T11:46:55.473Z,29.14
2022-08-04T11:49:57.399Z,29.24
2022-08-04T11:52:50.396Z,29.34
2022-08-04T11:56:08.140Z,29.36
2022-08-04T11:58:50.533Z,29.39
2022-08-04T12:01:42.693Z,29.45
2022-08-04T12:04:51.613Z,29.50
2022-08-04T12:07:55.925Z,29.59
2022-08-04T12:11:13.827Z,29.69
2022-08-04T12:14:30.427Z,29.77
2022-08-04T12:17:23.108Z,29.85
2022-08-04T12:20:34.332Z,29.93
2022-08-04T12:23:25.769Z,30.06
2022-08-04T12:26:21.111Z,30.18
2022-08-04T12:29:10.919Z,30.26
2022-08-04T12:32:00.590Z,30.31
2022-08-04T12:34:51.543Z,30.35
2022-08-04T12:38:02.873Z,30.41
2022-08-04T12:40:55.759Z,30.43
2022-08-04T12:43:43.820Z,30.52
2022-08-04T12:46:30.853Z,30.59
2022-08-04T12:49:17.413Z,30.64
2022-08-04T12:52:09.611Z,30.73
2022-08-04T12:54:57.704Z,30.82
2022-08-04T12:57:44.168Z,30.96
2022-08-04T13:00:41.651Z,31.11
2022-08-04T13:03:31.150Z,31.30
2022-08-04T13:06:23.347Z,31.46
2022-08-04T13:09:20.928Z,31.64
2022-08-04T13:12:19.623Z,31.93
2022-08-04T13:15:18.254Z,32.31
2022-08-04T13:18:15.009Z,32.55
2022-08-04T13:21:23.167Z,32.97
2022-08-04T13:24:32.404Z,33.36
2022-08-04T13:27:20.839Z,33.74
2022-08-04T13:30:07.450Z,34.10
2022-08-04T13:33:00.573Z,34.39
2022-08-04T13:35:56.018Z,34.68
2022-08-04T13:38:49.953Z,35.01
2022-08-04T13:41:42.561Z,35.28
2022-08-04T13:44:32.666Z,35.57
2022-08-04T13:47:23.739Z,35.78
2022-08-04T13:50:15.270Z,35.95
2022-08-04T13:53:02.500Z,36.05
2022-08-04T13:55:49.385Z,36.15
2022-08-04T13:58:46.960Z,36.29
2022-08-04T14:01:35.692Z,36.43
2022-08-04T14:04:22.487Z,36.60
2022-08-04T14:07:21.104Z,36.80
2022-08-04T14:10:13.018Z,36.97
2022-08-04T14:13:00.797Z,37.08
2022-08-04T14:16:02.573Z,37.25
2022-08-04T14:18:59.643Z,37.47
2022-08-04T14:21:46.147Z,37.62
2022-08-04T14:24:32.382Z,37.83
2022-08-04T14:27:18.488Z,37.93
2022-08-04T14:30:04.670Z,37.76
2022-08-04T14:34:00.586Z,37.56
2022-08-04T14:36:16.084Z,37.10
2022-08-04T14:39:08.363Z,36.74
2022-08-04T14:41:54.759Z,36.44
2022-08-04T14:44:58.259Z,36.21
2022-08-04T14:47:52.332Z,35.89
2022-08-04T14:50:47.372Z,35.54
2022-08-04T14:53:37.587Z,35.28
2022-08-04T14:56:45.240Z,35.06
2022-08-04T14:59:59.787Z,35.15
2022-08-04T15:02:50.652Z,35.56
2022-08-04T15:05:59.992Z,35.99
2022-08-04T15:08:47.415Z,36.40
2022-08-04T15:11:41.459Z,36.69
2022-08-04T15:14:37.121Z,36.92
2022-08-04T15:17:29.729Z,37.08
2022-08-04T15:20:17.548Z,37.20
2022-08-04T15:23:08.667Z,37.29
2022-08-04T15:25:58.302Z,37.40
2022-08-04T15:28:52.131Z,37.46
2022-08-04T15:32:06.828Z,37.42
2022-08-04T15:34:50.664Z,37.38
2022-08-04T15:38:01.023Z,37.18
2022-08-04T15:40:51.948Z,36.81
2022-08-04T15:43:47.317Z,36.40
2022-08-04T15:46:47.663Z,35.98
2022-08-04T15:49:33.802Z,35.48
2022-08-04T15:52:19.682Z,35.11
2022-08-04T15:55:32.479Z,34.80
2022-08-04T15:58:22.016Z,34.47
2022-08-04T16:01:17.888Z,34.21
2022-08-04T16:04:25.258Z,33.91
2022-08-04T16:07:11.246Z,33.68
2022-08-04T16:10:32.719Z,33.44
2022-08-04T16:13:23.312Z,33.22
2022-08-04T16:16:09.446Z,33.05
2022-08-04T16:19:04.935Z,32.87
2022-08-04T16:21:52.725Z,32.74
2022-08-04T16:24:42.776Z,32.65
2022-08-04T16:27:37.907Z,32.59
2022-08-04T16:30:23.942Z,32.55
2022-08-04T16:33:10.119Z,32.51
2022-08-04T16:36:07.947Z,32.46
2022-08-04T16:39:04.809Z,32.45
2022-08-04T16:41:50.692Z,32.39
2022-08-04T16:44:52.733Z,32.37
2022-08-04T16:47:49.278Z,32.31
2022-08-04T16:50:52.216Z,32.29
2022-08-04T16:54:03.929Z,32.24
2022-08-04T16:56:45.188Z,32.17
2022-08-04T16:59:31.438Z,32.14
2022-08-04T17:02:24.434Z,32.10
2022-08-04T17:05:39.766Z,32.03
2022-08-04T17:08:29.984Z,31.98
2022-08-04T17:11:17.003Z,31.93
2022-08-04T17:14:05.673Z,31.87
2022-08-04T17:16:53.640Z,31.78
2022-08-04T17:19:39.627Z,31.72
2022-08-04T17:22:25.802Z,31.70
2022-08-04T17:25:12.099Z,31.63
2022-08-04T17:28:08.773Z,31.56
2022-08-04T17:31:10.003Z,31.50
2022-08-04T17:33:58.356Z,31.45
2022-08-04T17:36:44.377Z,31.37
2022-08-04T17:39:35.050Z,31.31
2022-08-04T17:42:32.923Z,31.24
2022-08-04T17:48:25.287Z,31.14
2022-08-04T17:51:17.019Z,31.08
2022-08-04T17:54:06.599Z,31.04
2022-08-04T17:56:58.040Z,30.99
2022-08-04T17:59:55.495Z,30.92
2022-08-04T18:02:53.349Z,30.81
2022-08-04T18:06:01.399Z,30.79
2022-08-04T18:08:52.370Z,30.77
2022-08-04T18:11:44.072Z,30.70
2022-08-04T18:14:43.921Z,30.67
2022-08-04T18:18:21.135Z,30.63
2022-08-04T18:20:46.472Z,30.58
2022-08-04T18:23:43.480Z,30.52
2022-08-04T18:26:38.423Z,30.51
2022-08-04T18:29:31.897Z,30.44
2022-08-04T18:32:20.808Z,30.34
2022-08-04T18:35:07.621Z,30.36
2022-08-04T18:38:06.527Z,30.33
2022-08-04T18:40:55.248Z,30.30
2022-08-04T18:43:41.920Z,30.29
2022-08-04T18:46:52.565Z,30.26
2022-08-04T18:51:00.404Z,30.20
2022-08-04T18:52:46.606Z,30.18
2022-08-04T18:55:57.502Z,30.14
2022-08-04T18:58:39.121Z,30.08
2022-08-04T19:01:30.408Z,30.07
2022-08-04T19:04:36.529Z,30.02
2022-08-04T19:07:25.136Z,29.96
2022-08-04T19:10:23.799Z,29.89
2022-08-04T19:13:24.923Z,29.87
2022-08-04T19:16:16.703Z,29.80
2022-08-04T19:19:07.492Z,29.71
2022-08-04T19:22:00.430Z,29.70
2022-08-04T19:24:49.783Z,29.64
2022-08-04T19:30:42.579Z,29.56
2022-08-04T19:33:58.442Z,29.53
2022-08-04T19:36:36.118Z,29.47
2022-08-04T19:39:23.986Z,29.37
2022-08-04T19:42:11.027Z,29.36
2022-08-04T19:44:58.499Z,29.33
2022-08-04T19:48:12.141Z,29.30
2022-08-04T19:50:52.955Z,29.26
2022-08-04T19:53:43.192Z,29.20
2022-08-04T19:56:29.611Z,29.17
2022-08-04T19:59:27.142Z,29.12
2022-08-04T20:02:18.402Z,29.10
2022-08-04T20:05:05.027Z,29.05
2022-08-04T20:07:55.446Z,28.99
2022-08-04T20:10:47.006Z,28.94
2022-08-04T20:13:38.668Z,28.90
2022-08-04T20:16:29.741Z,28.85
2022-08-04T20:19:16.893Z,28.80
2022-08-04T20:22:04.065Z,28.77
2022-08-04T20:25:00.634Z,28.70
2022-08-04T20:28:00.640Z,28.66
2022-08-04T20:30:47.651Z,28.62
2022-08-04T20:33:35.147Z,28.59
2022-08-04T20:36:24.144Z,28.51
2022-08-04T20:39:15.691Z,28.50
2022-08-04T20:42:01.768Z,28.44
2022-08-04T20:44:49.015Z,28.41
2022-08-04T20:47:36.082Z,28.37
2022-08-04T20:50:29.476Z,28.29
2022-08-04T20:53:17.354Z,28.22
2022-08-04T20:56:03.931Z,28.22
2022-08-04T20:58:52.821Z,28.19
2022-08-04T21:01:45.379Z,28.15
2022-08-04T21:04:48.558Z,28.09
2022-08-04T21:07:36.450Z,28.07
2022-08-04T21:10:28.147Z,28.04
2022-08-04T21:13:14.057Z,28.04
2022-08-04T21:15:59.939Z,28.04
2022-08-04T21:18:50.283Z,27.98
2022-08-04T21:21:36.194Z,27.97
2022-08-04T21:24:26.277Z,27.95
2022-08-04T21:27:12.739Z,27.91
2022-08-04T21:29:59.848Z,27.90
2022-08-04T21:32:45.766Z,27.85
2022-08-04T21:35:37.963Z,27.83
2022-08-04T21:38:28.397Z,27.71
2022-08-04T21:41:24.195Z,27.76
2022-08-04T21:44:14.375Z,27.67
2022-08-04T21:47:00.397Z,27.66
2022-08-04T21:49:56.479Z,27.63
2022-08-04T21:52:44.222Z,27.63
2022-08-04T21:56:04.674Z,27.61
2022-08-04T21:58:37.597Z,27.55
2022-08-04T22:01:50.394Z,27.53
2022-08-04T22:04:30.909Z,27.51
2022-08-04T22:07:17.002Z,27.49
2022-08-04T22:10:04.442Z,27.44
2022-08-04T22:12:51.998Z,27.37
2022-08-04T22:16:03.662Z,27.39
2022-08-04T22:19:02.194Z,27.34
2022-08-04T22:21:48.301Z,27.27
2022-08-04T22:24:35.480Z,27.23
2022-08-04T22:27:40.040Z,27.19
2022-08-04T22:30:29.210Z,27.11
2022-08-04T22:33:22.915Z,27.09
2022-08-04T22:36:10.695Z,27.06
2022-08-04T22:39:04.501Z,27.00
2022-08-04T22:42:03.541Z,26.95
2022-08-04T22:44:50.682Z,26.83
2022-08-04T22:47:37.149Z,26.88
2022-08-04T22:50:27.585Z,26.82
2022-08-04T22:53:17.685Z,26.81
2022-08-04T22:56:09.588Z,26.77
2022-08-04T22:58:57.407Z,26.75
2022-08-04T23:01:58.947Z,26.68
2022-08-04T23:04:47.489Z,26.65
2022-08-04T23:07:49.027Z,26.67
2022-08-04T23:10:38.421Z,26.62
2022-08-04T23:13:27.626Z,26.60
2022-08-04T23:16:13.478Z,26.57
2022-08-04T23:19:00.026Z,26.55
2022-08-04T23:21:47.302Z,26.50
2022-08-04T23:24:34.129Z,26.45
2022-08-04T23:27:20.375Z,26.41
2022-08-04T23:30:07.709Z,26.43
2022-08-04T23:32:54.072Z,26.35
2022-08-04T23:35:40.205Z,26.33
2022-08-04T23:38:31.188Z,26.29
2022-08-04T23:41:18.828Z,26.29
2022-08-04T23:44:06.538Z,26.23
2022-08-04T23:47:03.329Z,26.20
2022-08-04T23:49:50.415Z,26.19
2022-08-04T23:52:36.409Z,26.18
2022-08-04T23:55:22.138Z,26.20
2022-08-04T23:58:18.907Z,26.19
